Time;durP1;ratioP1;P1;durP2;ratioP2;P2;SDS_P1;SDS_P2;PMS_P1;PMS_P2;Temp;Humidity;BMP_temperature;BMP_pressure;BME280_temperature;BME280_humidity;BME280_pressure;Samples;Min_cycle;Max_cycle;Signal;HPM_P1;HPM_P2
2022/05/18 00:00:27;;;;;;;18.38;4.30;;;22.60;57.00;;;;;;5030215;28;20072;-82
2022/05/18 00:02:59;;;;;;;13.48;4.25;;;22.60;57.00;;;;;;5016049;28;20021;-82
2022/05/18 00:05:25;;;;;;;11.45;4.13;;;22.50;57.00;;;;;;5033258;28;20038;-83
2022/05/18 00:07:51;;;;;;;13.80;4.20;;;22.50;57.10;;;;;;5016944;28;20113;-83
2022/05/18 00:10:19;;;;;;;12.57;4.45;;;22.50;57.10;;;;;;5016955;28;20522;-81
2022/05/18 00:12:46;;;;;;;17.15;5.30;;;22.50;57.20;;;;;;5015233;28;20402;-83
2022/05/18 00:15:14;;;;;;;14.18;4.20;;;22.50;57.20;;;;;;5015862;28;20021;-83
2022/05/18 00:17:41;;;;;;;17.17;4.97;;;22.50;57.10;;;;;;5008234;28;20052;-84
2022/05/18 00:20:08;;;;;;;13.75;4.47;;;22.50;57.10;;;;;;5016471;28;20037;-83
2022/05/18 00:22:46;;;;;;;16.98;4.35;;;22.50;57.10;;;;;;5033139;28;20120;-83
2022/05/18 00:25:12;;;;;;;21.33;4.70;;;22.50;57.20;;;;;;5034225;28;20060;-84
2022/05/18 00:27:38;;;;;;;10.30;3.78;;;22.50;57.20;;;;;;5034018;28;20105;-82
2022/05/18 00:30:06;;;;;;;11.15;3.97;;;22.50;57.30;;;;;;5015860;28;20116;-83
2022/05/18 00:32:31;;;;;;;11.77;4.22;;;22.50;57.20;;;;;;5007949;28;20033;-82
2022/05/18 00:34:57;;;;;;;13.43;4.38;;;22.50;57.30;;;;;;4983676;28;20025;-83
2022/05/18 00:37:24;;;;;;;13.77;4.13;;;22.50;57.20;;;;;;5016115;28;20029;-84
2022/05/18 00:39:50;;;;;;;13.50;4.20;;;22.50;57.60;;;;;;5033728;28;20104;-82
2022/05/18 00:42:21;;;;;;;12.32;3.88;;;22.50;57.60;;;;;;5016254;28;20121;-83
2022/05/18 00:44:47;;;;;;;13.75;4.28;;;22.50;57.50;;;;;;4998385;28;20017;-83
2022/05/18 00:47:13;;;;;;;10.60;3.67;;;22.50;57.20;;;;;;4984886;28;20041;-83
2022/05/18 00:49:43;;;;;;;9.30;3.97;;;22.50;57.20;;;;;;4996592;28;20073;-84
2022/05/18 00:52:09;;;;;;;12.30;3.88;;;22.50;57.10;;;;;;5014005;28;20471;-83
2022/05/18 00:54:36;;;;;;;13.63;4.28;;;22.50;57.20;;;;;;4996113;28;20030;-84
2022/05/18 00:57:10;;;;;;;10.45;3.60;;;22.50;57.10;;;;;;5013383;28;20069;-83
2022/05/18 00:59:44;;;;;;;10.80;4.13;;;22.50;57.00;;;;;;5004029;28;20029;-83
2022/05/18 01:02:11;;;;;;;10.13;3.65;;;22.50;57.20;;;;;;4996330;28;20034;-82
2022/05/18 01:04:39;;;;;;;13.98;3.83;;;22.50;57.20;;;;;;4979241;28;20546;-84
2022/05/18 01:07:09;;;;;;;13.23;4.10;;;22.50;57.10;;;;;;5001334;28;20048;-83
2022/05/18 01:09:42;;;;;;;10.95;3.38;;;22.50;57.20;;;;;;5015750;28;20045;-83
2022/05/18 01:12:12;;;;;;;11.88;4.38;;;22.50;57.20;;;;;;5024750;28;20046;-82
2022/05/18 01:14:39;;;;;;;;;;;22.50;57.20;;;;;;5023500;28;20030;-82
2022/05/18 01:17:06;;;;;;;9.27;3.55;;;22.50;57.20;;;;;;5015084;28;19912;-83
2022/05/18 01:19:38;;;;;;;13.80;3.90;;;22.50;57.20;;;;;;5015342;28;20490;-82
2022/05/18 01:22:28;;;;;;;11.50;3.85;;;22.50;57.30;;;;;;4998960;28;20032;-83
2022/05/18 01:25:06;;;;;;;9.70;3.65;;;22.50;57.30;;;;;;5013359;28;20029;-83
2022/05/18 01:27:31;;;;;;;13.05;4.03;;;22.50;57.20;;;;;;5006947;28;20038;-84
2022/05/18 01:29:57;;;;;;;10.10;3.20;;;22.50;57.30;;;;;;5015159;28;20603;-84
2022/05/18 01:32:23;;;;;;;10.98;3.38;;;22.50;57.90;;;;;;5015040;28;20525;-83
2022/05/18 01:34:49;;;;;;;8.80;3.70;;;22.50;57.30;;;;;;4997915;28;20052;-83
2022/05/18 01:37:15;;;;;;;9.77;3.75;;;22.50;57.20;;;;;;5032512;28;20175;-83
2022/05/18 01:39:56;;;;;;;11.75;3.63;;;22.50;57.70;;;;;;5020915;28;20034;-84
2022/05/18 01:42:43;;;;;;;9.98;3.50;;;22.50;57.60;;;;;;5013879;28;20036;-84
2022/05/18 01:45:08;;;;;;;9.13;3.10;;;22.50;57.50;;;;;;4978193;28;20022;-84
2022/05/18 01:47:36;;;;;;;9.05;3.00;;;22.50;57.50;;;;;;4995163;28;20041;-84
2022/05/18 01:50:05;;;;;;;13.75;3.78;;;22.50;57.20;;;;;;4995300;28;20410;-85
2022/05/18 01:52:32;;;;;;;9.00;3.55;;;22.50;57.20;;;;;;5020839;28;20029;-84
2022/05/18 01:54:58;;;;;;;9.63;3.47;;;22.50;57.50;;;;;;5007379;28;20040;-86
2022/05/18 01:57:25;;;;;;;7.90;3.38;;;22.50;57.20;;;;;;4998339;28;20040;-84
2022/05/18 01:59:50;;;;;;;9.93;3.60;;;22.50;57.20;;;;;;4998177;28;20097;-84
2022/05/18 02:02:17;;;;;;;8.88;2.92;;;22.50;58.00;;;;;;5014906;28;20128;-84
2022/05/18 02:04:43;;;;;;;10.25;3.50;;;22.50;57.30;;;;;;5013793;28;20018;-84
2022/05/18 02:07:11;;;;;;;8.18;3.33;;;22.50;58.10;;;;;;4981917;28;20048;-85
2022/05/18 02:09:38;;;;;;;9.73;3.97;;;22.50;57.80;;;;;;5014545;28;20040;-85
2022/05/18 02:12:07;;;;;;;6.40;3.10;;;22.50;57.30;;;;;;5014236;28;20030;-85
2022/05/18 02:14:33;;;;;;;7.45;2.97;;;22.50;57.50;;;;;;5031588;28;20108;-84
2022/05/18 02:16:59;;;;;;;11.48;4.00;;;22.50;57.10;;;;;;5014640;28;20123;-83
2022/05/18 02:19:24;;;;;;;13.18;3.78;;;22.50;57.10;;;;;;5014421;28;20021;-84
2022/05/18 02:21:50;;;;;;;7.78;3.40;;;22.50;57.20;;;;;;5006605;28;20017;-84
2022/05/18 02:24:17;;;;;;;8.82;3.55;;;22.50;57.30;;;;;;5030820;28;20045;-84
2022/05/18 02:26:42;;;;;;;7.78;3.20;;;22.50;57.20;;;;;;5014728;28;20478;-84
2022/05/18 02:29:08;;;;;;;8.65;3.38;;;22.40;57.20;;;;;;5014364;28;20028;-83
2022/05/18 02:31:34;;;;;;;13.05;3.35;;;22.40;57.20;;;;;;5031696;28;20034;-83
2022/05/18 02:34:00;;;;;;;9.50;3.20;;;22.50;57.30;;;;;;5009239;28;20093;-82
2022/05/18 02:36:26;;;;;;;9.52;3.88;;;22.40;57.40;;;;;;5002457;28;20033;-83
2022/05/18 02:38:52;;;;;;;6.82;2.92;;;22.50;57.40;;;;;;4994459;28;20076;-82
2022/05/18 02:41:19;;;;;;;9.38;3.13;;;22.50;57.20;;;;;;4994394;28;20026;-83
2022/05/18 02:43:45;;;;;;;6.78;2.90;;;22.50;57.10;;;;;;5009775;28;20711;-83
2022/05/18 02:46:17;;;;;;;8.80;3.30;;;22.50;57.10;;;;;;4978488;28;20037;-83
2022/05/18 02:48:43;;;;;;;7.20;3.08;;;22.50;57.00;;;;;;5020321;28;20029;-83
2022/05/18 02:51:10;;;;;;;6.47;2.90;;;22.50;57.30;;;;;;4999332;28;20038;-82
2022/05/18 02:53:36;;;;;;;9.25;3.20;;;22.50;57.40;;;;;;4977561;28;20030;-83
2022/05/18 02:56:07;;;;;;;6.07;2.83;;;22.50;57.20;;;;;;4994195;28;20490;-83
2022/05/18 02:58:35;;;;;;;5.43;2.47;;;22.50;56.90;;;;;;4993976;28;20036;-82
2022/05/18 03:01:02;;;;;;;11.07;3.38;;;22.50;57.20;;;;;;5000183;28;20029;-82
2022/05/18 03:03:28;;;;;;;7.00;2.60;;;22.40;57.20;;;;;;5020954;28;20124;-83
2022/05/18 03:05:54;;;;;;;10.00;2.78;;;22.50;56.90;;;;;;5031368;28;20053;-83
2022/05/18 03:08:20;;;;;;;7.65;2.97;;;22.40;57.00;;;;;;5013682;28;20453;-82
2022/05/18 03:10:45;;;;;;;6.50;2.88;;;22.40;57.00;;;;;;4997269;28;20036;-83
2022/05/18 03:13:11;;;;;;;7.18;3.00;;;22.40;57.00;;;;;;5030712;28;20041;-82
2022/05/18 03:15:37;;;;;;;8.00;2.90;;;22.40;57.60;;;;;;5020927;28;20116;-83
2022/05/18 03:18:02;;;;;;;7.55;2.90;;;22.40;57.00;;;;;;5017444;28;20522;-82
2022/05/18 03:25:57;;;;;;;8.15;2.90;;;22.40;56.80;;;;;;5015206;28;20124;-83
2022/05/18 03:28:23;;;;;;;8.60;2.80;;;22.40;57.00;;;;;;4987736;28;20120;-83
2022/05/18 03:30:48;;;;;;;12.25;3.13;;;22.40;57.00;;;;;;5009145;28;20084;-83
2022/05/18 03:33:14;;;;;;;7.72;3.22;;;22.40;57.30;;;;;;5016610;28;20075;-83
2022/05/18 03:35:40;;;;;;;5.72;2.65;;;22.40;56.80;;;;;;5033621;28;20033;-83
2022/05/18 03:38:05;;;;;;;6.68;3.00;;;22.50;57.10;;;;;;5017613;28;20091;-83
2022/05/18 03:40:36;;;;;;;6.80;2.65;;;22.50;57.00;;;;;;5000951;28;20033;-83
2022/05/18 03:43:03;;;;;;;5.90;2.80;;;22.50;57.10;;;;;;5033399;28;20393;-83
2022/05/18 03:45:30;;;;;;;8.07;2.85;;;22.50;58.10;;;;;;5026691;28;20032;-83
2022/05/18 03:47:56;;;;;;;5.43;2.78;;;22.50;56.90;;;;;;5000675;28;20470;-84
2022/05/18 03:50:22;;;;;;;9.70;2.80;;;22.50;57.20;;;;;;5034744;28;20037;-84
2022/05/18 03:52:47;;;;;;;7.18;2.70;;;22.50;56.90;;;;;;5000021;28;20510;-84
2022/05/18 03:55:13;;;;;;;6.93;2.67;;;22.50;56.80;;;;;;5001257;28;20040;-84
2022/05/18 03:57:39;;;;;;;9.13;2.80;;;22.40;57.50;;;;;;4999125;28;20505;-83
2022/05/18 04:00:06;;;;;;;7.85;3.00;;;22.40;57.10;;;;;;5015657;28;20044;-82
2022/05/18 04:02:34;;;;;;;5.88;2.78;;;22.40;57.00;;;;;;4997444;28;20080;-81
2022/05/18 04:04:59;;;;;;;7.72;2.92;;;22.40;57.30;;;;;;4995996;28;20475;-81
2022/05/18 04:07:26;;;;;;;8.77;2.78;;;22.40;56.90;;;;;;4998106;28;20483;-83
2022/05/18 04:09:51;;;;;;;6.22;2.78;;;22.40;56.80;;;;;;5005993;28;20029;-82
2022/05/18 04:12:17;;;;;;;8.15;2.92;;;22.40;56.80;;;;;;5014191;28;20025;-82
2022/05/18 04:14:42;;;;;;;8.68;2.50;;;22.40;57.00;;;;;;5009368;28;20033;-83
2022/05/18 04:17:08;;;;;;;5.93;2.65;;;22.40;57.10;;;;;;5026543;28;20421;-83
2022/05/18 04:19:34;;;;;;;8.00;3.00;;;22.40;57.30;;;;;;5014554;28;20446;-83
2022/05/18 04:21:59;;;;;;;7.70;2.97;;;22.40;57.10;;;;;;5017008;28;20018;-83
2022/05/18 04:24:25;;;;;;;9.63;2.72;;;22.40;57.30;;;;;;5032154;28;20109;-83
2022/05/18 04:26:51;;;;;;;8.35;2.70;;;22.40;57.30;;;;;;5009096;28;20029;-82
2022/05/18 04:29:17;;;;;;;7.75;2.70;;;22.40;57.10;;;;;;5017995;28;20042;-84
2022/05/18 04:31:43;;;;;;;6.60;2.80;;;22.40;57.20;;;;;;5001016;28;20037;-82
2022/05/18 04:34:09;;;;;;;5.97;2.42;;;22.40;57.40;;;;;;4999865;28;20362;-83
2022/05/18 04:36:34;;;;;;;5.80;2.58;;;22.40;57.20;;;;;;5018837;28;20044;-83
2022/05/18 04:39:00;;;;;;;7.63;2.92;;;22.40;57.20;;;;;;4998430;28;20108;-83
2022/05/18 04:41:26;;;;;;;8.40;2.60;;;22.40;57.10;;;;;;4999163;28;20037;-81
2022/05/18 04:43:51;;;;;;;7.03;2.63;;;22.40;57.20;;;;;;4979805;28;20033;-80
2022/05/18 04:46:17;;;;;;;11.70;3.00;;;22.40;57.10;;;;;;5013737;28;20398;-81
2022/05/18 04:48:42;;;;;;;6.97;2.70;;;22.40;57.20;;;;;;5030139;28;20046;-82
2022/05/18 04:51:08;;;;;;;7.53;3.17;;;22.40;57.10;;;;;;5015092;28;20029;-83
2022/05/18 04:53:34;;;;;;;5.95;2.88;;;22.40;57.20;;;;;;5006907;28;20076;-82
2022/05/18 04:56:00;;;;;;;7.30;2.75;;;22.40;57.30;;;;;;5015734;28;20039;-83
2022/05/18 04:58:26;;;;;;;4.82;2.80;;;22.40;57.20;;;;;;5035474;28;20059;-82
2022/05/18 05:00:59;;;;;;;5.47;2.60;;;22.40;57.00;;;;;;4999520;28;20099;-81
2022/05/18 05:03:25;;;;;;;4.90;2.70;;;22.40;57.00;;;;;;5032278;28;20280;-81
2022/05/18 05:05:51;;;;;;;6.65;2.97;;;22.40;57.10;;;;;;5028355;28;20088;-81
2022/05/18 05:08:18;;;;;;;5.82;2.50;;;22.40;57.00;;;;;;4994820;28;20658;-81
2022/05/18 05:10:43;;;;;;;8.27;3.50;;;22.40;57.00;;;;;;4998493;28;20041;-81
2022/05/18 05:13:09;;;;;;;8.55;2.88;;;22.40;57.00;;;;;;5031090;28;20025;-81
2022/05/18 05:15:36;;;;;;;7.75;2.67;;;22.40;57.10;;;;;;5013994;28;20030;-81
2022/05/18 05:18:01;;;;;;;6.18;2.47;;;22.40;57.10;;;;;;5014780;28;20033;-81
2022/05/18 05:20:27;;;;;;;6.30;2.72;;;22.40;57.10;;;;;;5006893;28;20034;-81
2022/05/18 05:22:53;;;;;;;7.95;2.67;;;22.40;56.90;;;;;;5032290;28;20553;-81
2022/05/18 05:25:18;;;;;;;6.75;3.03;;;22.40;57.00;;;;;;5032881;28;20359;-80
2022/05/18 05:27:44;;;;;;;6.28;2.80;;;22.40;57.10;;;;;;5032781;28;20017;-80
2022/05/18 05:30:11;;;;;;;6.68;2.90;;;22.40;57.10;;;;;;5015388;28;20033;-81
2022/05/18 05:32:36;;;;;;;8.65;2.78;;;22.40;57.10;;;;;;5014275;28;20060;-79
2022/05/18 05:35:03;;;;;;;6.05;2.80;;;22.40;58.20;;;;;;4989551;28;20030;-77
2022/05/18 05:37:28;;;;;;;9.95;2.95;;;22.40;58.20;;;;;;5014876;28;20477;-78
2022/05/18 05:39:55;;;;;;;7.28;2.85;;;22.50;58.40;;;;;;5032451;28;20037;-78
2022/05/18 05:42:22;;;;;;;8.80;3.03;;;22.40;56.80;;;;;;5032534;28;20025;-78
2022/05/18 05:44:47;;;;;;;7.40;3.00;;;22.40;57.50;;;;;;5014066;28;20383;-77
2022/05/18 05:47:13;;;;;;;5.40;2.40;;;22.40;57.20;;;;;;5030783;28;20020;-78
2022/05/18 05:49:39;;;;;;;6.15;2.92;;;22.40;56.60;;;;;;5023864;28;20113;-78
2022/05/18 05:52:07;;;;;;;7.60;3.42;;;22.30;56.30;;;;;;5014497;28;20029;-78
2022/05/18 05:54:33;;;;;;;10.80;3.13;;;22.30;55.70;;;;;;5013728;28;20048;-77
2022/05/18 05:57:02;;;;;;;8.10;3.30;;;22.30;55.50;;;;;;5032208;28;20114;-77
2022/05/18 05:59:34;;;;;;;7.20;2.95;;;22.30;55.20;;;;;;5013746;28;20556;-77
2022/05/18 06:02:05;;;;;;;7.32;3.28;;;22.30;54.80;;;;;;5023818;28;20026;-78
2022/05/18 06:04:32;;;;;;;5.78;2.92;;;22.30;54.60;;;;;;5014036;28;20029;-77
2022/05/18 06:06:58;;;;;;;6.72;3.17;;;22.30;54.80;;;;;;5031977;28;20021;-76
2022/05/18 06:09:24;;;;;;;7.70;3.05;;;22.30;54.30;;;;;;5014266;28;20033;-77
2022/05/18 06:11:50;;;;;;;9.13;3.20;;;22.30;53.50;;;;;;5031969;28;20033;-78
2022/05/18 06:14:16;;;;;;;8.73;3.00;;;22.30;54.10;;;;;;5029764;28;20450;-78
2022/05/18 06:16:42;;;;;;;9.75;3.17;;;22.30;53.60;;;;;;5013282;28;20041;-77
2022/05/18 06:19:08;;;;;;;5.60;2.42;;;22.30;53.70;;;;;;5017370;28;20095;-78
2022/05/18 06:21:34;;;;;;;6.88;2.85;;;22.30;52.70;;;;;;5010805;28;20052;-78
2022/05/18 06:24:00;;;;;;;6.30;2.92;;;22.30;52.70;;;;;;5011497;28;20028;-78
2022/05/18 06:26:26;;;;;;;9.35;2.55;;;22.30;52.30;;;;;;4994386;28;20030;-77
2022/05/18 06:28:52;;;;;;;6.45;2.90;;;22.30;52.20;;;;;;5011782;28;20060;-78
2022/05/18 06:31:18;;;;;;;4.57;2.70;;;22.30;52.40;;;;;;4994309;28;20022;-78
2022/05/18 06:33:44;;;;;;;7.75;3.05;;;22.30;52.50;;;;;;5027380;28;20028;-78
2022/05/18 06:36:10;;;;;;;9.18;3.30;;;22.20;52.70;;;;;;5008514;28;20025;-78
2022/05/18 06:38:38;;;;;;;7.40;2.80;;;22.30;52.20;;;;;;5031492;28;20033;-78
2022/05/18 06:41:21;;;;;;;6.35;3.05;;;22.30;51.80;;;;;;5025391;28;20133;-78
2022/05/18 06:43:56;;;;;;;8.95;2.97;;;22.30;51.30;;;;;;5030833;28;20036;-78
2022/05/18 06:46:24;;;;;;;4.85;2.55;;;22.20;51.20;;;;;;5014010;28;20017;-78
2022/05/18 06:48:50;;;;;;;7.88;3.15;;;22.30;50.80;;;;;;5029747;28;20505;-78
2022/05/18 06:51:20;;;;;;;5.88;3.03;;;22.20;50.90;;;;;;4973502;28;20044;-78
2022/05/18 06:53:47;;;;;;;8.02;3.10;;;22.30;52.40;;;;;;5030587;28;20017;-78
2022/05/18 06:56:14;;;;;;;8.38;2.97;;;22.20;50.60;;;;;;5030085;28;20022;-78
2022/05/18 06:58:39;;;;;;;6.00;3.15;;;22.30;51.00;;;;;;5029890;28;20027;-77
2022/05/18 07:01:08;;;;;;;6.55;2.72;;;22.20;51.50;;;;;;5031141;28;20116;-78
2022/05/18 07:03:34;;;;;;;8.55;3.05;;;22.30;51.20;;;;;;5029090;28;20029;-77
2022/05/18 07:06:04;;;;;;;4.13;2.60;;;22.20;51.30;;;;;;5024591;28;20033;-78
2022/05/18 07:08:30;;;;;;;4.95;2.95;;;22.20;50.90;;;;;;5024788;28;20026;-78
2022/05/18 07:10:56;;;;;;;7.53;3.13;;;22.20;51.00;;;;;;5024042;28;20524;-77
2022/05/18 07:13:21;;;;;;;4.47;2.97;;;22.20;50.70;;;;;;5032336;28;20053;-76
2022/05/18 07:15:50;;;;;;;7.03;3.10;;;22.20;50.60;;;;;;5017356;28;20030;-76
2022/05/18 07:18:16;;;;;;;7.20;3.22;;;22.20;50.90;;;;;;5023090;28;20372;-77
2022/05/18 07:20:42;;;;;;;6.85;2.90;;;22.20;51.20;;;;;;5024129;28;20091;-77
2022/05/18 07:23:08;;;;;;;5.50;2.88;;;22.20;50.60;;;;;;5000603;28;20080;-78
2022/05/18 07:25:35;;;;;;;4.20;2.70;;;22.30;50.60;;;;;;5027791;28;20032;-77
2022/05/18 07:28:02;;;;;;;6.43;2.95;;;22.20;51.20;;;;;;5011661;28;20083;-77
2022/05/18 07:30:27;;;;;;;4.90;2.65;;;22.20;51.00;;;;;;5023592;28;20088;-78
2022/05/18 07:32:56;;;;;;;6.65;3.03;;;22.20;51.10;;;;;;5008202;28;20033;-77
2022/05/18 07:35:22;;;;;;;5.72;2.95;;;22.30;51.50;;;;;;5004322;28;20030;-77
2022/05/18 07:37:48;;;;;;;7.10;3.13;;;22.30;51.40;;;;;;5023316;28;20049;-79
2022/05/18 07:40:14;;;;;;;7.05;3.20;;;22.30;51.50;;;;;;5030898;28;20064;-78
2022/05/18 07:42:39;;;;;;;4.72;2.45;;;22.30;51.70;;;;;;5013524;28;20564;-75
2022/05/18 07:45:09;;;;;;;8.30;3.13;;;22.30;50.70;;;;;;5030898;28;20431;-76
2022/05/18 07:47:34;;;;;;;8.25;2.95;;;22.40;50.80;;;;;;4994944;28;20049;-75
2022/05/18 07:50:00;;;;;;;8.80;3.10;;;22.40;50.80;;;;;;5012947;28;20068;-74
2022/05/18 07:52:26;;;;;;;6.40;2.92;;;22.40;51.80;;;;;;5029756;28;20402;-82
2022/05/18 07:54:52;;;;;;;8.57;4.25;;;22.50;52.80;;;;;;5028565;28;20025;-82
2022/05/18 07:57:18;;;;;;;13.55;4.65;;;22.50;51.60;;;;;;4999884;28;20034;-80
2022/05/18 07:59:45;;;;;;;14.23;4.32;;;22.60;51.60;;;;;;5012524;28;20014;-82
2022/05/18 08:02:10;;;;;;;16.05;4.95;;;22.60;54.10;;;;;;4994747;28;20033;-81
2022/05/18 08:04:36;;;;;;;20.67;5.82;;;22.70;56.50;;;;;;5012198;28;20680;-82
2022/05/18 08:07:02;;;;;;;30.48;7.38;;;22.70;58.30;;;;;;5028736;28;20017;-79
2022/05/18 08:09:28;;;;;;;27.30;7.30;;;22.70;60.00;;;;;;5029258;28;20394;-80
2022/05/18 08:17:24;;;;;;;14.95;6.10;;;22.60;53.60;;;;;;5028869;28;20557;-76
2022/05/18 08:19:50;;;;;;;15.38;5.20;;;22.50;51.30;;;;;;5020369;28;20390;-76
2022/05/18 08:22:17;;;;;;;18.13;5.22;;;22.50;50.80;;;;;;5022507;28;20105;-78
2022/05/18 08:24:45;;;;;;;13.77;4.90;;;22.50;49.80;;;;;;4998451;28;20079;-78
2022/05/18 08:27:14;;;;;;;18.98;5.47;;;22.50;49.80;;;;;;5027124;28;20026;-77
2022/05/18 08:29:40;;;;;;;16.63;4.80;;;22.50;48.60;;;;;;5030367;28;20025;-75
2022/05/18 08:32:06;;;;;;;16.02;4.88;;;22.60;48.90;;;;;;5031545;28;20033;-77
2022/05/18 08:34:31;;;;;;;18.30;4.75;;;22.60;49.10;;;;;;5014389;28;20555;-78
2022/05/18 08:36:58;;;;;;;20.27;4.68;;;22.60;49.30;;;;;;5028845;28;20168;-75
2022/05/18 08:39:23;;;;;;;11.40;4.45;;;22.70;49.20;;;;;;5014789;28;20033;-75
2022/05/18 08:41:51;;;;;;;14.43;5.03;;;22.60;50.00;;;;;;5031078;28;20027;-76
2022/05/18 08:44:32;;;;;;;14.20;4.00;;;22.60;51.90;;;;;;5013762;28;20021;-76
2022/05/18 08:47:19;;;;;;;19.02;4.40;;;22.60;50.60;;;;;;5033317;28;20036;-75
2022/05/18 08:49:58;;;;;;;13.30;4.57;;;22.70;48.90;;;;;;5032902;28;20037;-75
2022/05/18 08:52:43;;;;;;;15.13;4.05;;;22.60;49.20;;;;;;5030150;28;20026;-75
2022/05/18 08:55:24;;;;;;;15.95;4.80;;;22.50;46.30;;;;;;5026945;28;20474;-77
2022/05/18 08:57:53;;;;;;;11.63;4.07;;;22.50;47.70;;;;;;5025022;28;20109;-76
2022/05/18 09:00:29;;;;;;;14.10;3.70;;;22.60;48.00;;;;;;5031861;28;20457;-74
2022/05/18 09:03:09;;;;;;;8.57;3.10;;;22.60;48.30;;;;;;5013675;28;20030;-76
2022/05/18 09:06:01;;;;;;;14.23;3.40;;;22.60;46.30;;;;;;5023871;28;20109;-75
2022/05/18 09:08:35;;;;;;;13.23;3.65;;;22.60;47.00;;;;;;5033084;28;20470;-75
2022/05/18 09:11:27;;;;;;;9.50;3.33;;;22.60;48.20;;;;;;5033246;28;20033;-77
2022/05/18 09:13:56;;;;;;;9.30;3.30;;;22.60;48.20;;;;;;5030853;28;20029;-75
2022/05/18 09:16:59;;;;;;;10.35;3.20;;;22.60;48.60;;;;;;5032134;28;20029;-75
2022/05/18 09:19:33;;;;;;;8.90;3.33;;;22.60;47.70;;;;;;5014294;28;20498;-75
2022/05/18 09:22:31;;;;;;;13.15;3.78;;;22.60;48.80;;;;;;5031714;28;20509;-75
2022/05/18 09:25:30;;;;;;;10.57;3.47;;;22.60;48.90;;;;;;5004138;28;20048;-74
2022/05/18 09:28:14;;;;;;;7.38;3.25;;;22.60;49.10;;;;;;5015034;28;20079;-76
2022/05/18 09:30:59;;;;;;;8.93;3.17;;;22.60;49.30;;;;;;5014681;28;20441;-75
2022/05/18 09:33:58;;;;;;;9.10;3.17;;;22.60;49.00;;;;;;5030495;28;20109;-76
2022/05/18 09:36:55;;;;;;;15.70;3.33;;;22.60;49.10;;;;;;5029397;28;20035;-76
2022/05/18 09:39:24;;;;;;;10.50;3.35;;;22.70;50.20;;;;;;5032597;28;20572;-77
2022/05/18 09:42:02;;;;;;;6.73;2.93;;;22.60;49.10;;;;;;5014996;28;20029;-75
2022/05/18 09:44:40;;;;;;;10.95;3.20;;;22.70;45.50;;;;;;5014095;28;20626;-74
2022/05/18 09:47:09;;;;;;;11.00;3.30;;;22.70;47.10;;;;;;5014354;28;20446;-75
2022/05/18 09:49:50;;;;;;;14.18;3.30;;;22.60;47.30;;;;;;5060029;22;20056;-72
2022/05/18 09:52:20;;;;;;;17.42;3.72;;;22.70;48.80;;;;;;5063824;28;20047;-76
2022/05/18 09:54:46;;;;;;;13.88;3.92;;;22.70;49.00;;;;;;5050424;28;20039;-76
2022/05/18 09:57:22;;;;;;;13.18;3.55;;;22.70;48.20;;;;;;5051929;28;20409;-75
2022/05/18 10:00:00;;;;;;;15.55;3.75;;;22.60;48.20;;;;;;5051702;28;20029;-76
2022/05/18 10:08:30;;;;;;;11.30;3.03;;;22.60;48.00;;;;;;5037639;28;20045;-76
2022/05/18 10:11:06;;;;;;;9.20;3.20;;;22.60;48.20;;;;;;5050091;28;20075;-76
2022/05/18 10:13:49;;;;;;;11.55;3.35;;;22.60;48.70;;;;;;5076036;28;20067;-78
2022/05/18 10:16:48;;;;;;;11.73;3.25;;;22.60;49.20;;;;;;5071642;28;20108;-75
2022/05/18 10:19:24;;;;;;;6.55;3.30;;;22.50;49.70;;;;;;5060814;28;20039;-74
2022/05/18 10:22:01;;;;;;;11.45;3.38;;;22.60;50.00;;;;;;5058485;28;20040;-76
2022/05/18 10:24:44;;;;;;;14.90;3.42;;;22.60;50.10;;;;;;5050516;28;20032;-75
2022/05/18 10:27:16;;;;;;;11.95;3.13;;;22.60;51.20;;;;;;5060048;28;20025;-76
2022/05/18 10:30:12;;;;;;;10.30;3.55;;;22.60;50.50;;;;;;5071075;28;20104;-77
2022/05/18 10:33:19;;;;;;;8.93;3.38;;;22.60;51.40;;;;;;5070179;28;20174;-73
2022/05/18 10:35:56;;;;;;;11.45;3.85;;;22.60;51.20;;;;;;5059853;28;20029;-72
2022/05/18 10:38:34;;;;;;;10.18;3.33;;;22.70;51.10;;;;;;5050938;28;20079;-73
2022/05/18 10:41:36;;;;;;;10.68;3.95;;;22.70;51.10;;;;;;5070458;28;20492;-73
2022/05/18 10:44:18;;;;;;;15.95;5.38;;;22.70;50.80;;;;;;5070595;28;20259;-72
2022/05/18 10:46:47;;;;;;;15.15;4.93;;;22.70;50.70;;;;;;5067561;28;20031;-72
2022/05/18 10:49:30;;;;;;;48.58;33.08;;;22.70;50.80;;;;;;5057672;28;20033;-74
2022/05/18 10:52:11;;;;;;;51.75;29.15;;;22.70;50.80;;;;;;5050232;28;20029;-72
2022/05/18 10:58:05;;;;;;;35.45;24.23;;;22.70;50.90;;;;;;5042785;28;20059;-76
2022/05/18 11:00:56;;;;;;;28.15;15.40;;;22.70;51.30;;;;;;5058210;28;20033;-78
2022/05/18 11:03:36;;;;;;;27.58;19.85;;;22.70;50.30;;;;;;5064370;28;20028;-77
2022/05/18 11:06:12;;;;;;;35.05;24.58;;;22.60;51.00;;;;;;5064479;28;20013;-78
2022/05/18 11:08:38;;;;;;;27.13;15.65;;;22.60;50.90;;;;;;5071050;28;20201;-78
2022/05/18 11:11:21;;;;;;;36.15;22.67;;;22.60;50.90;;;;;;5086721;28;20099;-77
2022/05/18 11:14:06;;;;;;;38.28;24.50;;;22.60;51.10;;;;;;5086243;28;20043;-78
2022/05/18 11:16:53;;;;;;;38.45;26.30;;;22.60;51.60;;;;;;5065982;28;20180;-77
2022/05/18 11:19:48;;;;;;;34.88;23.55;;;22.60;51.60;;;;;;5057635;28;20029;-77
2022/05/18 11:22:46;;;;;;;35.15;23.75;;;22.60;51.70;;;;;;5049558;28;20025;-77
2022/05/18 11:25:24;;;;;;;32.47;21.10;;;22.60;52.00;;;;;;5033467;28;20100;-77
2022/05/18 11:27:55;;;;;;;31.55;20.20;;;22.60;51.90;;;;;;5050727;28;20033;-78
2022/05/18 11:30:45;;;;;;;28.50;18.48;;;22.60;51.60;;;;;;5050731;28;20489;-78
2022/05/18 11:33:23;;;;;;;;;;;22.60;51.70;;;;;;5057979;28;20029;-78
2022/05/18 11:35:52;;;;;;;26.90;17.08;;;22.60;51.50;;;;;;5057579;28;19912;-78
2022/05/18 11:38:32;;;;;;;25.65;17.42;;;22.60;51.50;;;;;;5062391;28;20035;-78
2022/05/18 11:41:11;;;;;;;26.73;16.95;;;22.60;51.30;;;;;;5069484;28;20037;-78
2022/05/18 11:43:48;;;;;;;26.38;17.83;;;22.60;51.80;;;;;;5070118;28;20078;-79
2022/05/18 11:46:30;;;;;;;26.60;17.63;;;22.60;51.90;;;;;;5056302;28;20043;-78
2022/05/18 11:49:10;;;;;;;23.70;16.50;;;22.60;51.90;;;;;;5068939;28;20032;-79
2022/05/18 11:51:45;;;;;;;26.63;16.55;;;22.60;51.90;;;;;;5071530;28;20032;-78
2022/05/18 11:54:41;;;;;;;25.75;17.23;;;22.60;52.00;;;;;;5056202;28;20082;-79
2022/05/18 11:57:31;;;;;;;22.63;15.98;;;22.60;52.10;;;;;;5057090;28;20032;-77
2022/05/18 12:00:39;;;;;;;24.00;15.65;;;22.60;52.10;;;;;;5089864;28;20519;-78
2022/05/18 12:03:30;;;;;;;25.85;14.98;;;22.60;51.90;;;;;;5073401;28;20092;-78
2022/05/18 12:06:25;;;;;;;25.40;15.75;;;22.60;52.50;;;;;;5064188;28;20045;-78
2022/05/18 12:09:05;;;;;;;21.70;14.45;;;22.60;52.10;;;;;;5074456;28;20025;-78
2022/05/18 12:12:00;;;;;;;26.23;15.38;;;22.60;52.30;;;;;;5074127;28;20380;-77
2022/05/18 12:14:37;;;;;;;22.05;15.43;;;22.50;52.30;;;;;;5073529;28;20485;-78
2022/05/18 12:17:26;;;;;;;24.90;14.73;;;22.50;52.50;;;;;;5074715;28;20031;-78
2022/05/18 12:20:30;;;;;;;22.17;14.82;;;22.50;52.40;;;;;;5073143;28;20072;-78
2022/05/18 12:23:00;;;;;;;23.45;14.88;;;22.60;52.30;;;;;;5065891;28;20021;-78
2022/05/18 12:25:28;;;;;;;22.92;15.32;;;22.60;52.20;;;;;;5072608;28;20032;-78
2022/05/18 12:27:59;;;;;;;20.15;13.75;;;22.60;52.40;;;;;;5056201;28;20040;-78
2022/05/18 12:30:27;;;;;;;23.13;14.95;;;22.60;52.50;;;;;;5064769;28;20031;-79
2022/05/18 12:32:56;;;;;;;24.70;14.10;;;22.60;52.20;;;;;;5060634;28;20025;-78
2022/05/18 12:35:49;;;;;;;22.70;15.05;;;22.60;52.50;;;;;;5052500;28;20508;-78
2022/05/18 12:38:47;;;;;;;21.90;13.93;;;22.60;52.40;;;;;;5077718;28;20035;-79
2022/05/18 12:41:13;;;;;;;22.73;14.25;;;22.60;52.30;;;;;;5053421;28;20116;-79
2022/05/18 12:43:48;;;;;;;22.48;14.88;;;22.60;52.40;;;;;;5052671;28;20025;-79
2022/05/18 12:46:14;;;;;;;25.08;14.35;;;22.60;52.50;;;;;;5053773;28;20102;-78
2022/05/18 12:48:42;;;;;;;22.63;14.10;;;22.50;52.40;;;;;;5056743;28;20472;-77
2022/05/18 12:51:30;;;;;;;33.33;15.05;;;22.60;53.10;;;;;;5061351;28;20032;-78
2022/05/18 12:54:11;;;;;;;23.83;14.40;;;22.60;53.10;;;;;;5048559;28;20497;-75
2022/05/18 12:56:36;;;;;;;24.10;15.25;;;22.60;53.00;;;;;;5053138;28;20486;-78
2022/05/18 12:59:19;;;;;;;22.23;13.60;;;22.60;53.70;;;;;;5052964;28;20112;-71
2022/05/18 13:01:50;;;;;;;19.55;12.43;;;22.60;53.30;;;;;;5054098;28;20025;-72
2022/05/18 13:04:17;;;;;;;21.15;12.75;;;22.60;52.90;;;;;;5059165;28;20381;-74
2022/05/18 13:06:49;;;;;;;22.85;12.65;;;22.90;52.60;;;;;;5052846;28;20025;-75
2022/05/18 13:09:21;;;;;;;19.55;11.70;;;22.90;52.20;;;;;;5052878;28;20059;-75
2022/05/18 13:11:56;;;;;;;29.23;17.52;;;22.80;51.10;;;;;;5053043;28;20025;-72
2022/05/18 13:14:56;;;;;;;25.40;15.27;;;22.80;50.60;;;;;;5052446;28;20397;-72
2022/05/18 13:17:40;;;;;;;18.95;11.63;;;22.80;51.30;;;;;;5037841;28;20032;-72
2022/05/18 13:20:25;;;;;;;22.63;12.35;;;22.70;51.10;;;;;;5060858;28;20029;-73
2022/05/18 13:23:21;;;;;;;22.48;11.52;;;22.70;52.20;;;;;;5050973;28;20021;-84